createdAt,value
2018-06-08T00:00:57.300Z,0.00
2018-06-08T00:01:57.258Z,0.00
2018-06-08T00:02:57.211Z,0.00
2018-06-08T00:03:57.173Z,0.00
2018-06-08T00:04:57.128Z,0.00
2018-06-08T00:05:57.085Z,0.00
2018-06-08T00:06:57.043Z,0.00
2018-06-08T00:07:57.035Z,0.00
2018-06-08T00:08:56.955Z,0.00
2018-06-08T00:09:56.912Z,0.00
2018-06-08T00:10:56.870Z,0.00
2018-06-08T00:11:56.829Z,0.00
2018-06-08T00:12:56.781Z,0.00
2018-06-08T00:13:56.742Z,0.00
2018-06-08T00:14:56.698Z,0.00
2018-06-08T00:15:56.652Z,0.00
2018-06-08T00:16:56.645Z,0.00
2018-06-08T00:17:56.572Z,0.00
2018-06-08T00:18:56.525Z,0.00
2018-06-08T00:19:56.485Z,0.00
2018-06-08T00:20:56.449Z,0.00
2018-06-08T00:21:56.398Z,0.00
2018-06-08T00:22:56.354Z,0.00
2018-06-08T00:23:56.311Z,0.00
2018-06-08T00:24:56.266Z,0.00
2018-06-08T00:25:56.223Z,0.00
2018-06-08T00:26:56.185Z,0.00
2018-06-08T00:27:56.187Z,0.00
2018-06-08T00:28:56.095Z,0.00
2018-06-08T00:29:56.056Z,0.00
2018-06-08T00:30:56.010Z,0.00
2018-06-08T00:31:55.969Z,0.00
2018-06-08T00:32:55.923Z,0.00
2018-06-08T00:33:55.880Z,0.00
2018-06-08T00:34:55.837Z,0.00
2018-06-08T00:35:55.799Z,0.00
2018-06-08T00:36:55.791Z,0.00
2018-06-08T00:37:55.708Z,0.00
2018-06-08T00:38:55.667Z,0.00
2018-06-08T00:39:55.624Z,0.00
2018-06-08T00:40:55.579Z,0.00
2018-06-08T00:41:55.540Z,0.00
2018-06-08T00:42:55.495Z,0.00
2018-06-08T00:43:55.453Z,0.00
2018-06-08T00:44:55.407Z,0.00
2018-06-08T00:45:55.399Z,0.00
2018-06-08T00:46:55.324Z,0.00
2018-06-08T00:47:55.280Z,0.00
2018-06-08T00:48:55.235Z,0.00
2018-06-08T00:49:55.194Z,0.00
2018-06-08T00:50:55.149Z,0.00
2018-06-08T00:51:55.106Z,0.00
2018-06-08T00:52:55.064Z,0.00
2018-06-08T00:53:55.020Z,0.00
2018-06-08T00:54:55.012Z,0.00
2018-06-08T00:55:54.934Z,0.00
2018-06-08T00:56:54.891Z,0.00
2018-06-08T00:57:54.848Z,0.00
2018-06-08T00:58:54.806Z,0.00
2018-06-08T00:59:54.764Z,0.00
2018-06-08T01:00:54.719Z,0.00
2018-06-08T01:01:54.677Z,0.00
2018-06-08T01:02:54.633Z,0.00
2018-06-08T01:03:54.598Z,0.00
2018-06-08T01:04:54.547Z,0.00
2018-06-08T01:05:54.543Z,0.00
2018-06-08T01:06:54.462Z,0.00
2018-06-08T01:07:54.420Z,0.00
2018-06-08T01:08:54.375Z,0.00
2018-06-08T01:09:54.331Z,0.00
2018-06-08T01:10:54.295Z,0.00
2018-06-08T01:11:54.246Z,0.00
2018-06-08T01:12:56.167Z,0.00
2018-06-08T01:13:54.157Z,0.00
2018-06-08T01:14:54.118Z,0.00
2018-06-08T01:15:54.075Z,0.00
2018-06-08T01:16:55.605Z,0.00
2018-06-08T01:17:53.989Z,0.00
2018-06-08T01:18:53.946Z,0.00
2018-06-08T01:19:54.009Z,0.00
2018-06-08T01:20:53.857Z,0.00
2018-06-08T01:21:53.840Z,0.00
2018-06-08T01:22:53.773Z,0.00
2018-06-08T01:23:53.748Z,0.00
2018-06-08T01:24:53.684Z,0.00
2018-06-08T01:26:08.302Z,0.00
2018-06-08T01:26:53.599Z,0.00
2018-06-08T01:27:53.558Z,0.00
2018-06-08T01:28:53.512Z,0.00
2018-06-08T01:29:53.470Z,0.00
2018-06-08T01:30:54.172Z,0.00
2018-06-08T01:31:53.384Z,0.00
2018-06-08T01:32:53.342Z,0.00
2018-06-08T01:33:53.383Z,0.00
2018-06-08T01:34:53.255Z,0.00
2018-06-08T01:35:53.228Z,0.00
2018-06-08T01:36:59.715Z,0.00
2018-06-08T01:37:53.673Z,0.00
2018-06-08T01:38:53.085Z,0.00
2018-06-08T01:39:53.039Z,0.00
2018-06-08T01:40:53.023Z,0.00
2018-06-08T01:41:53.380Z,0.00
2018-06-08T01:42:52.930Z,0.00
2018-06-08T01:43:52.868Z,0.00
2018-06-08T01:44:53.676Z,0.00
2018-06-08T01:45:52.781Z,0.00
2018-06-08T01:46:52.740Z,0.00
2018-06-08T01:47:52.758Z,0.00
2018-06-08T01:48:52.672Z,0.00
2018-06-08T01:49:52.611Z,0.00
2018-06-08T01:50:59.227Z,0.00
2018-06-08T01:51:53.174Z,0.00
2018-06-08T01:52:52.477Z,0.00
2018-06-08T01:53:52.434Z,0.00
2018-06-08T01:54:52.499Z,0.00
2018-06-08T01:55:52.346Z,0.00
2018-06-08T01:56:52.324Z,0.00
2018-06-08T01:57:53.537Z,0.00
2018-06-08T01:58:53.178Z,0.00
2018-06-08T01:59:52.178Z,0.00
2018-06-08T02:00:52.169Z,0.00
2018-06-08T02:01:52.137Z,0.00
2018-06-08T02:02:52.049Z,0.00
2018-06-08T02:03:52.028Z,0.00
2018-06-08T02:04:58.696Z,0.00
2018-06-08T02:05:52.680Z,0.00
2018-06-08T02:06:51.874Z,0.00
2018-06-08T02:07:51.869Z,0.00
2018-06-08T02:08:51.787Z,0.00
2018-06-08T02:09:51.742Z,0.00
2018-06-08T02:10:51.718Z,0.00
2018-06-08T02:11:51.655Z,0.00
2018-06-08T02:12:52.181Z,0.00
2018-06-08T02:13:54.221Z,0.00
2018-06-08T02:14:51.532Z,0.00
2018-06-08T02:15:51.487Z,0.00
2018-06-08T02:16:51.452Z,0.00
2018-06-08T02:17:51.398Z,0.00
2018-06-08T02:18:51.354Z,0.00
2018-06-08T02:19:51.311Z,0.00
2018-06-08T02:20:51.270Z,0.00
2018-06-08T02:21:51.223Z,0.00
2018-06-08T02:22:51.367Z,0.00
2018-06-08T02:23:51.140Z,0.00
2018-06-08T02:24:51.095Z,0.00
2018-06-08T02:25:51.051Z,0.00
2018-06-08T02:26:51.010Z,0.00
2018-06-08T02:27:50.965Z,0.00
2018-06-08T02:28:50.989Z,0.00
2018-06-08T02:29:50.878Z,0.00
2018-06-08T02:30:50.834Z,0.00
2018-06-08T02:31:50.967Z,0.00
2018-06-08T02:32:50.749Z,0.00
2018-06-08T02:33:50.705Z,0.00
2018-06-08T02:34:50.721Z,0.00
2018-06-08T02:35:50.619Z,0.00
2018-06-08T02:36:50.575Z,0.00
2018-06-08T02:37:50.533Z,0.00
2018-06-08T02:38:50.488Z,0.00
2018-06-08T02:39:50.444Z,0.00
2018-06-08T02:40:50.568Z,0.00
2018-06-08T02:41:50.358Z,0.00
2018-06-08T02:42:50.313Z,0.00
2018-06-08T02:43:50.376Z,0.00
2018-06-08T02:44:50.228Z,0.00
2018-06-08T02:45:50.183Z,0.00
2018-06-08T02:46:50.145Z,0.00
2018-06-08T02:47:50.096Z,0.00
2018-06-08T02:48:50.052Z,0.00
2018-06-08T02:49:50.179Z,0.00
2018-06-08T02:50:49.969Z,0.00
2018-06-08T02:51:49.924Z,0.00
2018-06-08T02:52:49.884Z,0.00
2018-06-08T02:53:49.835Z,0.00
2018-06-08T02:54:49.793Z,0.00
2018-06-08T02:55:49.756Z,0.00
2018-06-08T02:56:49.708Z,0.00
2018-06-08T02:57:49.662Z,0.00
2018-06-08T02:58:49.618Z,0.00
2018-06-08T02:59:49.576Z,0.00
2018-06-08T03:00:49.669Z,0.00
2018-06-08T03:01:49.489Z,0.00
2018-06-08T03:02:49.445Z,0.00
2018-06-08T03:03:49.485Z,0.00
2018-06-08T03:04:49.357Z,0.00
2018-06-08T03:05:49.318Z,0.00
2018-06-08T03:06:49.276Z,0.00
2018-06-08T03:07:49.239Z,0.00
2018-06-08T03:08:49.184Z,0.00
2018-06-08T03:09:49.381Z,0.00
2018-06-08T03:10:49.098Z,0.00
2018-06-08T03:11:49.061Z,0.00
2018-06-08T03:12:49.032Z,0.00
2018-06-08T03:13:48.969Z,0.00
2018-06-08T03:14:48.928Z,0.00
2018-06-08T03:15:48.881Z,0.00
2018-06-08T03:16:48.855Z,0.00
2018-06-08T03:17:48.799Z,0.00
2018-06-08T03:18:48.887Z,0.00
2018-06-08T03:19:48.707Z,0.00
2018-06-08T03:20:48.661Z,0.00
2018-06-08T03:21:48.685Z,0.00
2018-06-08T03:22:48.576Z,0.00
2018-06-08T03:23:48.533Z,0.00
2018-06-08T03:24:48.488Z,0.00
2018-06-08T03:25:48.455Z,0.00
2018-06-08T03:26:48.401Z,0.00
2018-06-08T03:27:48.589Z,5.63
2018-06-08T03:28:48.313Z,5.63
2018-06-08T03:29:48.271Z,5.63
2018-06-08T03:30:48.336Z,5.63
2018-06-08T03:31:48.184Z,5.63
2018-06-08T03:32:48.140Z,5.63
2018-06-08T03:33:48.097Z,5.63
2018-06-08T03:34:48.052Z,5.63
2018-06-08T03:35:48.010Z,5.63
2018-06-08T03:36:48.198Z,5.63
2018-06-08T03:37:47.923Z,5.63
2018-06-08T03:38:47.879Z,5.63
2018-06-08T03:39:47.840Z,5.63
2018-06-08T03:40:47.792Z,5.63
2018-06-08T03:41:47.748Z,5.63
2018-06-08T03:42:47.706Z,5.63
2018-06-08T03:43:47.661Z,11.25
2018-06-08T03:44:47.617Z,11.25
2018-06-08T03:45:47.802Z,11.25
2018-06-08T03:46:47.531Z,11.25
2018-06-08T03:47:47.487Z,11.25
2018-06-08T03:48:47.538Z,11.25
2018-06-08T03:49:47.399Z,11.25
2018-06-08T03:50:47.357Z,11.25
2018-06-08T03:51:47.314Z,11.25
2018-06-08T03:52:47.293Z,11.25
2018-06-08T03:53:47.225Z,11.25
2018-06-08T03:54:47.404Z,11.25
2018-06-08T03:55:47.139Z,11.25
2018-06-08T03:56:47.095Z,11.25
2018-06-08T03:57:47.083Z,11.25
2018-06-08T03:58:47.008Z,11.25
2018-06-08T03:59:46.966Z,16.88
2018-06-08T04:00:46.922Z,16.88
2018-06-08T04:01:46.900Z,16.88
2018-06-08T04:02:46.834Z,16.88
2018-06-08T04:03:47.018Z,16.88
2018-06-08T04:04:46.746Z,16.88
2018-06-08T04:05:46.706Z,22.50
2018-06-08T04:06:46.735Z,22.50
2018-06-08T04:07:46.616Z,22.50
2018-06-08T04:08:46.572Z,28.13
2018-06-08T04:09:46.531Z,28.13
2018-06-08T04:10:46.504Z,28.13
2018-06-08T04:11:46.445Z,33.75
2018-06-08T04:12:46.624Z,33.75
2018-06-08T04:13:46.354Z,39.38
2018-06-08T04:14:46.311Z,39.38
2018-06-08T04:15:46.273Z,45.00
2018-06-08T04:16:46.226Z,50.63
2018-06-08T04:17:46.180Z,56.25
2018-06-08T04:18:46.136Z,61.88
2018-06-08T04:19:46.112Z,67.50
2018-06-08T04:20:46.052Z,73.13
2018-06-08T04:21:46.233Z,73.13
2018-06-08T04:22:45.965Z,78.75
2018-06-08T04:23:45.921Z,84.38
2018-06-08T04:24:45.881Z,84.38
2018-06-08T04:25:45.872Z,78.75
2018-06-08T04:26:45.791Z,67.50
2018-06-08T04:27:45.750Z,78.75
2018-06-08T04:28:45.723Z,78.75
2018-06-08T04:29:45.664Z,84.38
2018-06-08T04:30:45.620Z,67.50
2018-06-08T04:31:45.583Z,67.50
2018-06-08T04:32:45.760Z,67.50
2018-06-08T04:33:45.496Z,67.50
2018-06-08T04:34:45.452Z,67.50
2018-06-08T04:35:45.497Z,73.13
2018-06-08T04:36:45.367Z,78.75
2018-06-08T04:37:45.327Z,84.38
2018-06-08T04:38:45.285Z,84.38
2018-06-08T04:39:45.257Z,90.00
2018-06-08T04:40:45.201Z,95.63
2018-06-08T04:41:45.343Z,95.63
2018-06-08T04:42:45.117Z,101.25
2018-06-08T04:43:45.074Z,101.25
2018-06-08T04:44:45.147Z,101.25
2018-06-08T04:45:44.990Z,95.63
2018-06-08T04:46:44.967Z,95.63
2018-06-08T04:47:44.908Z,90.00
2018-06-08T04:48:44.867Z,95.63
2018-06-08T04:49:44.821Z,90.00
2018-06-08T04:50:44.797Z,90.00
2018-06-08T04:51:44.804Z,95.63
2018-06-08T04:52:44.956Z,95.63
2018-06-08T04:53:44.656Z,101.25
2018-06-08T04:54:44.615Z,106.88
2018-06-08T04:55:44.574Z,106.88
2018-06-08T04:56:44.531Z,106.88
2018-06-08T04:57:44.491Z,101.25
2018-06-08T04:58:44.449Z,101.25
2018-06-08T04:59:44.407Z,101.25
2018-06-08T05:00:44.367Z,106.88
2018-06-08T05:01:45.238Z,112.50
2018-06-08T05:02:44.284Z,140.63
2018-06-08T05:03:44.243Z,151.88
2018-06-08T05:04:44.204Z,151.88
2018-06-08T05:05:44.160Z,140.63
2018-06-08T05:06:44.126Z,118.13
2018-06-08T05:07:44.079Z,112.50
2018-06-08T05:08:44.039Z,95.63
2018-06-08T05:09:44.113Z,90.00
2018-06-08T05:10:43.957Z,90.00
2018-06-08T05:11:44.032Z,90.00
2018-06-08T05:12:43.874Z,90.00
2018-06-08T05:13:43.841Z,90.00
2018-06-08T05:14:43.793Z,90.00
2018-06-08T05:15:43.753Z,90.00
2018-06-08T05:16:58.266Z,84.38
2018-06-08T05:17:43.673Z,84.38
2018-06-08T05:18:43.858Z,84.38
2018-06-08T05:19:43.591Z,84.38
2018-06-08T05:20:43.550Z,84.38
2018-06-08T05:21:43.556Z,90.00
2018-06-08T05:22:43.466Z,90.00
2018-06-08T05:23:43.426Z,90.00
2018-06-08T05:24:43.385Z,90.00
2018-06-08T05:25:43.358Z,95.63
2018-06-08T05:26:43.306Z,95.63
2018-06-08T05:27:43.263Z,95.63
2018-06-08T05:28:43.230Z,95.63
2018-06-08T05:29:43.196Z,95.63
2018-06-08T05:30:43.152Z,101.25
2018-06-08T05:31:43.112Z,101.25
2018-06-08T05:32:43.063Z,101.25
2018-06-08T05:33:43.021Z,101.25
2018-06-08T05:34:42.979Z,101.25
2018-06-08T05:35:42.963Z,101.25
2018-06-08T05:36:42.893Z,101.25
2018-06-08T05:37:42.851Z,101.25
2018-06-08T05:38:42.847Z,101.25
2018-06-08T05:39:42.770Z,95.63
2018-06-08T05:40:42.739Z,95.63
2018-06-08T05:41:42.687Z,95.63
2018-06-08T05:42:42.649Z,95.63
2018-06-08T05:43:42.605Z,95.63
2018-06-08T05:44:42.564Z,95.63
2018-06-08T05:45:42.528Z,95.63
2018-06-08T05:46:42.482Z,95.63
2018-06-08T05:47:42.449Z,95.63
2018-06-08T05:48:42.398Z,101.25
2018-06-08T05:49:42.374Z,101.25
2018-06-08T05:50:42.321Z,106.88
2018-06-08T05:51:42.274Z,106.88
2018-06-08T05:52:42.234Z,106.88
2018-06-08T05:53:42.253Z,106.88
2018-06-08T05:54:42.173Z,106.88
2018-06-08T05:55:42.114Z,106.88
2018-06-08T05:56:42.696Z,106.88
2018-06-08T05:57:42.026Z,106.88
2018-06-08T05:58:42.024Z,106.88
2018-06-08T05:59:41.965Z,106.88
2018-06-08T06:00:41.906Z,106.88
2018-06-08T06:01:41.862Z,106.88
2018-06-08T06:02:41.822Z,106.88
2018-06-08T06:03:41.779Z,106.88
2018-06-08T06:04:41.732Z,112.50
2018-06-08T06:05:41.696Z,112.50
2018-06-08T06:06:41.656Z,112.50
2018-06-08T06:07:41.617Z,118.13
2018-06-08T06:08:41.585Z,118.13
2018-06-08T06:09:41.536Z,118.13
2018-06-08T06:10:41.495Z,123.75
2018-06-08T06:11:41.451Z,123.75
2018-06-08T06:12:41.410Z,123.75
2018-06-08T06:13:41.370Z,123.75
2018-06-08T06:14:41.334Z,123.75
2018-06-08T06:15:41.294Z,123.75
2018-06-08T06:16:41.252Z,123.75
2018-06-08T06:17:41.213Z,129.38
2018-06-08T06:18:41.172Z,129.38
2018-06-08T06:19:41.129Z,129.38
2018-06-08T06:20:41.084Z,129.38
2018-06-08T06:21:41.047Z,135.00
2018-06-08T06:22:41.007Z,135.00
2018-06-08T06:23:40.968Z,135.00
2018-06-08T06:24:40.922Z,135.00
2018-06-08T06:25:40.883Z,135.00
2018-06-08T06:26:40.840Z,135.00
2018-06-08T06:27:40.802Z,135.00
2018-06-08T06:28:40.756Z,135.00
2018-06-08T06:29:40.719Z,140.63
2018-06-08T06:30:40.674Z,140.63
2018-06-08T06:31:40.638Z,146.25
2018-06-08T06:32:40.626Z,146.25
2018-06-08T06:33:40.555Z,146.25
2018-06-08T06:34:40.515Z,146.25
2018-06-08T06:35:40.476Z,146.25
2018-06-08T06:36:40.437Z,146.25
2018-06-08T06:37:40.387Z,146.25
2018-06-08T06:38:40.350Z,146.25
2018-06-08T06:39:40.333Z,146.25
2018-06-08T06:40:40.275Z,146.25
2018-06-08T06:41:40.226Z,140.63
2018-06-08T06:42:40.191Z,140.63
2018-06-08T06:43:40.144Z,140.63
2018-06-08T06:44:40.109Z,146.25
2018-06-08T06:45:40.062Z,146.25
2018-06-08T06:46:40.023Z,151.88
2018-06-08T06:47:39.984Z,151.88
2018-06-08T06:48:39.941Z,157.50
2018-06-08T06:49:39.902Z,163.13
2018-06-08T06:51:15.766Z,168.75
2018-06-08T06:51:39.825Z,174.38
2018-06-08T06:52:42.792Z,180.00
2018-06-08T06:53:39.740Z,185.63
2018-06-08T06:54:39.698Z,191.25
2018-06-08T06:55:39.656Z,202.50
2018-06-08T06:56:39.618Z,213.75
2018-06-08T06:57:39.576Z,202.50
2018-06-08T06:58:39.537Z,202.50
2018-06-08T06:59:39.501Z,208.13
2018-06-08T07:00:39.458Z,253.13
2018-06-08T07:01:39.417Z,219.38
2018-06-08T07:02:39.378Z,241.88
2018-06-08T07:03:39.342Z,225.00
2018-06-08T07:04:39.352Z,247.50
2018-06-08T07:05:39.255Z,225.00
2018-06-08T07:06:39.216Z,219.38
2018-06-08T07:08:06.773Z,185.63
2018-06-08T07:08:39.141Z,174.38
2018-06-08T07:09:39.168Z,168.75
2018-06-08T07:10:39.060Z,157.50
2018-06-08T07:11:39.023Z,157.50
2018-06-08T07:12:38.980Z,151.88
2018-06-08T07:13:38.942Z,151.88
2018-06-08T07:14:38.907Z,146.25
2018-06-08T07:15:39.003Z,146.25
2018-06-08T07:16:38.823Z,146.25
2018-06-08T07:17:38.785Z,146.25
2018-06-08T07:18:38.866Z,146.25
2018-06-08T07:19:38.705Z,151.88
2018-06-08T07:20:38.666Z,157.50
2018-06-08T07:21:38.626Z,163.13
2018-06-08T07:22:38.591Z,168.75
2018-06-08T07:23:38.546Z,225.00
2018-06-08T07:24:38.508Z,185.63
2018-06-08T07:25:38.470Z,185.63
2018-06-08T07:26:38.428Z,196.88
2018-06-08T07:27:38.393Z,213.75
2018-06-08T07:28:38.352Z,202.50
2018-06-08T07:29:39.278Z,208.13
2018-06-08T07:30:38.283Z,213.75
2018-06-08T07:31:38.294Z,213.75
2018-06-08T07:32:38.196Z,213.75
2018-06-08T07:33:38.163Z,281.25
2018-06-08T07:34:38.117Z,219.38
2018-06-08T07:35:38.075Z,213.75
2018-06-08T07:36:38.037Z,230.63
2018-06-08T07:37:38.001Z,241.88
2018-06-08T07:38:37.979Z,247.50
2018-06-08T07:39:37.922Z,208.13
2018-06-08T07:40:38.034Z,191.25
2018-06-08T07:41:37.845Z,185.63
2018-06-08T07:42:37.809Z,253.13
2018-06-08T07:43:37.764Z,241.88
2018-06-08T07:44:37.777Z,236.25
2018-06-08T07:45:37.694Z,236.25
2018-06-08T07:46:37.649Z,236.25
2018-06-08T07:47:37.612Z,225.00
2018-06-08T07:48:37.571Z,219.38
2018-06-08T07:49:37.532Z,213.75
2018-06-08T07:50:37.502Z,208.13
2018-06-08T07:51:37.461Z,202.50
2018-06-08T07:52:37.423Z,191.25
2018-06-08T07:53:37.390Z,180.00
2018-06-08T07:54:37.349Z,185.63
2018-06-08T07:55:37.307Z,191.25
2018-06-08T07:56:37.266Z,185.63
2018-06-08T07:57:37.221Z,146.25
2018-06-08T07:58:37.191Z,185.63
2018-06-08T07:59:37.155Z,191.25
2018-06-08T08:00:37.109Z,191.25
2018-06-08T08:01:37.076Z,196.88
2018-06-08T08:02:37.035Z,196.88
2018-06-08T08:03:36.997Z,202.50
2018-06-08T08:04:36.961Z,202.50
2018-06-08T08:05:36.918Z,208.13
2018-06-08T08:06:36.881Z,213.75
2018-06-08T08:07:36.840Z,208.13
2018-06-08T08:08:36.800Z,208.13
2018-06-08T08:09:36.766Z,213.75
2018-06-08T08:10:36.708Z,213.75
2018-06-08T08:11:36.686Z,219.38
2018-06-08T08:12:36.639Z,219.38
2018-06-08T08:13:36.606Z,219.38
2018-06-08T08:14:36.570Z,213.75
2018-06-08T08:15:36.525Z,208.13
2018-06-08T08:16:36.491Z,208.13
2018-06-08T08:17:36.455Z,208.13
2018-06-08T08:18:36.406Z,208.13
2018-06-08T08:19:36.376Z,208.13
2018-06-08T08:20:36.328Z,208.13
2018-06-08T08:21:36.295Z,213.75
2018-06-08T08:22:36.258Z,208.13
2018-06-08T08:23:36.363Z,202.50
2018-06-08T08:24:36.181Z,202.50
2018-06-08T08:25:36.144Z,196.88
2018-06-08T08:26:36.098Z,202.50
2018-06-08T08:27:36.061Z,196.88
2018-06-08T08:28:36.020Z,196.88
2018-06-08T08:29:35.993Z,202.50
2018-06-08T08:31:03.798Z,118.13
2018-06-08T08:31:35.938Z,174.38
2018-06-08T08:32:36.092Z,202.50
2018-06-08T08:33:35.830Z,208.13
2018-06-08T08:34:35.785Z,129.38
2018-06-08T08:35:35.857Z,191.25
2018-06-08T08:36:35.721Z,174.38
2018-06-08T08:37:35.671Z,213.75
2018-06-08T08:38:35.634Z,213.75
2018-06-08T08:39:35.605Z,219.38
2018-06-08T08:40:35.556Z,213.75
2018-06-08T08:41:35.517Z,129.38
2018-06-08T08:42:35.484Z,135.00
2018-06-08T08:43:35.443Z,146.25
2018-06-08T08:44:35.401Z,151.88
2018-06-08T08:45:35.397Z,157.50
2018-06-08T08:46:35.334Z,157.50
2018-06-08T08:47:35.291Z,157.50
2018-06-08T08:48:35.252Z,157.50
2018-06-08T08:49:35.212Z,146.25
2018-06-08T08:50:35.175Z,140.63
2018-06-08T08:51:35.177Z,140.63
2018-06-08T08:52:35.099Z,225.00
2018-06-08T08:53:35.060Z,230.63
2018-06-08T08:54:35.021Z,236.25
2018-06-08T08:55:34.982Z,236.25
2018-06-08T08:56:34.945Z,202.50
2018-06-08T08:57:34.905Z,174.38
2018-06-08T08:58:34.867Z,180.00
2018-06-08T08:59:34.824Z,191.25
2018-06-08T09:00:34.789Z,185.63
2018-06-08T09:01:34.751Z,180.00
2018-06-08T09:02:34.708Z,174.38
2018-06-08T09:03:34.674Z,247.50
2018-06-08T09:04:34.643Z,236.25
2018-06-08T09:05:34.597Z,236.25
2018-06-08T09:06:34.562Z,230.63
2018-06-08T09:07:34.673Z,230.63
2018-06-08T09:08:34.487Z,236.25
2018-06-08T09:09:34.444Z,236.25
2018-06-08T09:10:34.461Z,241.88
2018-06-08T09:11:34.405Z,241.88
2018-06-08T09:12:34.336Z,236.25
2018-06-08T09:13:34.291Z,236.25
2018-06-08T09:14:34.248Z,230.63
2018-06-08T09:15:34.217Z,230.63
2018-06-08T09:16:34.183Z,236.25
2018-06-08T09:17:34.145Z,236.25
2018-06-08T09:18:34.102Z,236.25
2018-06-08T09:19:34.071Z,241.88
2018-06-08T09:20:34.031Z,236.25
2018-06-08T09:21:33.985Z,241.88
2018-06-08T09:22:33.951Z,247.50
2018-06-08T09:23:33.912Z,247.50
2018-06-08T09:24:33.873Z,247.50
2018-06-08T09:25:33.829Z,241.88
2018-06-08T09:26:33.791Z,241.88
2018-06-08T09:27:33.756Z,241.88
2018-06-08T09:28:33.724Z,247.50
2018-06-08T09:29:33.686Z,253.13
2018-06-08T09:30:33.648Z,253.13
2018-06-08T09:31:33.605Z,258.75
2018-06-08T09:32:33.562Z,270.00
2018-06-08T09:33:33.530Z,275.63
2018-06-08T09:34:33.492Z,258.75
2018-06-08T09:35:33.459Z,275.63
2018-06-08T09:36:33.464Z,208.13
2018-06-08T09:37:33.381Z,258.75
2018-06-08T09:38:33.339Z,191.25
2018-06-08T09:39:33.314Z,191.25
2018-06-08T09:40:33.274Z,270.00
2018-06-08T09:41:33.228Z,241.88
2018-06-08T09:42:33.195Z,208.13
2018-06-08T09:43:33.153Z,219.38
2018-06-08T09:44:33.116Z,208.13
2018-06-08T09:45:33.086Z,286.88
2018-06-08T09:46:33.045Z,298.13
2018-06-08T09:47:33.006Z,292.50
2018-06-08T09:48:32.967Z,213.75
2018-06-08T09:49:32.932Z,202.50
2018-06-08T09:50:32.893Z,202.50
2018-06-08T09:51:32.863Z,241.88
2018-06-08T09:52:32.822Z,219.38
2018-06-08T09:53:32.785Z,230.63
2018-06-08T09:54:32.745Z,236.25
2018-06-08T09:55:32.711Z,241.88
2018-06-08T09:56:32.670Z,247.50
2018-06-08T09:57:32.639Z,247.50
2018-06-08T09:58:32.599Z,241.88
2018-06-08T09:59:32.565Z,320.63
2018-06-08T10:00:32.530Z,320.63
2018-06-08T10:01:32.487Z,315.00
2018-06-08T10:02:32.450Z,303.75
2018-06-08T10:03:33.347Z,298.13
2018-06-08T10:04:32.375Z,298.13
2018-06-08T10:05:32.340Z,298.13
2018-06-08T10:06:32.304Z,292.50
2018-06-08T10:07:32.267Z,281.25
2018-06-08T10:08:32.231Z,275.63
2018-06-08T10:09:32.195Z,275.63
2018-06-08T10:10:32.158Z,281.25
2018-06-08T10:11:32.123Z,292.50
2018-06-08T10:12:32.086Z,286.88
2018-06-08T10:13:32.048Z,281.25
2018-06-08T10:14:32.035Z,270.00
2018-06-08T10:15:31.978Z,270.00
2018-06-08T10:16:31.989Z,275.63
2018-06-08T10:17:31.908Z,196.88
2018-06-08T10:18:32.066Z,225.00
2018-06-08T10:19:31.913Z,275.63
2018-06-08T10:20:31.798Z,213.75
2018-06-08T10:21:31.760Z,157.50
2018-06-08T10:22:31.724Z,146.25
2018-06-08T10:23:31.688Z,135.00
2018-06-08T10:24:31.653Z,129.38
2018-06-08T10:25:31.617Z,129.38
2018-06-08T10:26:31.576Z,123.75
2018-06-08T10:27:31.544Z,129.38
2018-06-08T10:28:31.507Z,129.38
2018-06-08T10:29:31.471Z,140.63
2018-06-08T10:30:31.434Z,225.00
2018-06-08T10:31:31.395Z,241.88
2018-06-08T10:32:31.357Z,241.88
2018-06-08T10:33:31.318Z,247.50
2018-06-08T10:34:31.282Z,258.75
2018-06-08T10:35:31.443Z,264.38
2018-06-08T10:36:31.207Z,270.00
2018-06-08T10:37:31.174Z,270.00
2018-06-08T10:38:31.165Z,281.25
2018-06-08T10:39:31.096Z,292.50
2018-06-08T10:40:31.060Z,303.75
2018-06-08T10:41:31.022Z,241.88
2018-06-08T10:42:30.996Z,219.38
2018-06-08T10:43:30.953Z,202.50
2018-06-08T10:44:30.910Z,202.50
2018-06-08T10:45:30.880Z,208.13
2018-06-08T10:46:30.840Z,258.75
2018-06-08T10:47:30.800Z,253.13
2018-06-08T10:48:30.764Z,264.38
2018-06-08T10:49:30.729Z,258.75
2018-06-08T10:50:30.692Z,253.13
2018-06-08T10:51:31.347Z,202.50
2018-06-08T10:52:30.616Z,180.00
2018-06-08T10:53:30.581Z,202.50
2018-06-08T10:54:30.548Z,247.50
2018-06-08T10:55:30.509Z,253.13
2018-06-08T10:56:30.640Z,253.13
2018-06-08T10:57:30.432Z,258.75
2018-06-08T10:58:30.395Z,219.38
2018-06-08T10:59:30.360Z,185.63
2018-06-08T11:00:30.321Z,163.13
2018-06-08T11:01:30.304Z,168.75
2018-06-08T11:02:30.249Z,180.00
2018-06-08T11:03:30.244Z,253.13
2018-06-08T11:04:30.176Z,196.88
2018-06-08T11:05:30.138Z,202.50
2018-06-08T11:06:30.103Z,208.13
2018-06-08T11:07:30.067Z,208.13
2018-06-08T11:08:30.222Z,241.88
2018-06-08T11:09:29.993Z,196.88
2018-06-08T11:10:30.021Z,196.88
2018-06-08T11:11:29.920Z,185.63
2018-06-08T11:12:29.883Z,213.75
2018-06-08T11:13:29.846Z,174.38
2018-06-08T11:14:29.807Z,174.38
2018-06-08T11:15:29.771Z,168.75
2018-06-08T11:16:29.736Z,168.75
2018-06-08T11:17:29.698Z,168.75
2018-06-08T11:18:29.679Z,168.75
2018-06-08T11:19:29.631Z,168.75
2018-06-08T11:20:29.585Z,168.75
2018-06-08T11:21:29.556Z,168.75
2018-06-08T11:22:29.514Z,174.38
2018-06-08T11:23:29.479Z,174.38
2018-06-08T11:24:29.443Z,174.38
2018-06-08T11:25:29.405Z,174.38
2018-06-08T11:26:29.366Z,168.75
2018-06-08T11:27:29.330Z,157.50
2018-06-08T11:28:29.360Z,151.88
2018-06-08T11:29:29.260Z,151.88
2018-06-08T11:30:29.219Z,146.25
2018-06-08T11:31:29.175Z,146.25
2018-06-08T11:32:29.146Z,140.63
2018-06-08T11:33:29.108Z,140.63
2018-06-08T11:34:29.351Z,140.63
2018-06-08T11:35:29.052Z,146.25
2018-06-08T11:36:28.997Z,213.75
2018-06-08T11:37:28.957Z,225.00
2018-06-08T11:38:28.920Z,230.63
2018-06-08T11:39:29.893Z,230.63
2018-06-08T11:40:28.957Z,230.63
2018-06-08T11:41:28.818Z,185.63
2018-06-08T11:42:28.974Z,236.25
2018-06-08T11:43:28.737Z,241.88
2018-06-08T11:44:28.700Z,241.88
2018-06-08T11:45:28.663Z,247.50
2018-06-08T11:46:28.630Z,253.13
2018-06-08T11:47:28.608Z,264.38
2018-06-08T11:48:28.551Z,270.00
2018-06-08T11:49:28.665Z,270.00
2018-06-08T11:50:28.476Z,270.00
2018-06-08T11:51:28.444Z,270.00
2018-06-08T11:52:28.402Z,270.00
2018-06-08T11:53:28.367Z,270.00
2018-06-08T11:54:28.354Z,236.25
2018-06-08T11:55:28.294Z,219.38
2018-06-08T11:56:28.504Z,202.50
2018-06-08T11:57:28.223Z,208.13
2018-06-08T11:58:28.185Z,208.13
2018-06-08T11:59:28.149Z,281.25
2018-06-08T12:00:28.113Z,275.63
2018-06-08T12:01:28.073Z,202.50
2018-06-08T12:02:28.039Z,236.25
2018-06-08T12:03:28.184Z,191.25
2018-06-08T12:04:27.970Z,185.63
2018-06-08T12:05:27.932Z,180.00
2018-06-08T12:06:27.899Z,185.63
2018-06-08T12:07:27.858Z,208.13
2018-06-08T12:08:27.854Z,253.13
2018-06-08T12:09:27.786Z,258.75
2018-06-08T12:10:27.992Z,264.38
2018-06-08T12:11:27.721Z,236.25
2018-06-08T12:12:27.679Z,275.63
2018-06-08T12:13:27.641Z,281.25
2018-06-08T12:14:27.606Z,281.25
2018-06-08T12:15:27.570Z,281.25
2018-06-08T12:16:27.532Z,286.88
2018-06-08T12:17:27.709Z,286.88
2018-06-08T12:18:27.461Z,281.25
2018-06-08T12:19:27.424Z,275.63
2018-06-08T12:20:27.388Z,275.63
2018-06-08T12:21:27.354Z,213.75
2018-06-08T12:22:27.336Z,213.75
2018-06-08T12:23:27.281Z,270.00
2018-06-08T12:24:27.398Z,264.38
2018-06-08T12:25:27.211Z,191.25
2018-06-08T12:26:27.173Z,180.00
2018-06-08T12:27:27.134Z,185.63
2018-06-08T12:28:27.099Z,247.50
2018-06-08T12:29:27.082Z,258.75
2018-06-08T12:30:27.028Z,258.75
2018-06-08T12:31:27.199Z,258.75
2018-06-08T12:32:26.954Z,258.75
2018-06-08T12:33:26.919Z,258.75
2018-06-08T12:34:26.890Z,258.75
2018-06-08T12:35:26.848Z,258.75
2018-06-08T12:36:26.840Z,264.38
2018-06-08T12:37:26.777Z,270.00
2018-06-08T12:38:26.875Z,241.88
2018-06-08T12:39:26.706Z,208.13
2018-06-08T12:40:26.922Z,208.13
2018-06-08T12:41:26.634Z,208.13
2018-06-08T12:42:26.594Z,208.13
2018-06-08T12:43:26.559Z,275.63
2018-06-08T12:44:26.525Z,275.63
2018-06-08T12:45:26.485Z,275.63